sensor_id;sensor_type;location;lat;lon;timestamp;P1;durP1;ratioP1;P2;durP2;ratioP2
19800;SDS011;10060;48.274;12.214;2023-01-20T00:02:30;12.37;;;8.00;;
19800;SDS011;10060;48.274;12.214;2023-01-20T00:05:32;16.87;;;8.27;;
19800;SDS011;10060;48.274;12.214;2023-01-20T00:08:34;13.90;;;8.77;;
19800;SDS011;10060;48.274;12.214;2023-01-20T00:11:36;13.17;;;9.20;;
19800;SDS011;10060;48.274;12.214;2023-01-20T00:14:38;14.30;;;9.07;;
19800;SDS011;10060;48.274;12.214;2023-01-20T00:17:41;16.53;;;9.10;;
19800;SDS011;10060;48.274;12.214;2023-01-20T00:20:43;14.20;;;8.97;;
19800;SDS011;10060;48.274;12.214;2023-01-20T00:23:46;13.20;;;8.83;;
19800;SDS011;10060;48.274;12.214;2023-01-20T00:26:48;12.73;;;8.57;;
19800;SDS011;10060;48.274;12.214;2023-01-20T00:29:50;12.77;;;8.53;;
19800;SDS011;10060;48.274;12.214;2023-01-20T00:32:54;14.33;;;8.47;;
19800;SDS011;10060;48.274;12.214;2023-01-20T00:35:56;13.43;;;7.90;;
19800;SDS011;10060;48.274;12.214;2023-01-20T00:38:59;13.93;;;9.23;;
19800;SDS011;10060;48.274;12.214;2023-01-20T00:42:01;15.60;;;9.10;;
19800;SDS011;10060;48.274;12.214;2023-01-20T00:45:04;16.00;;;8.70;;
19800;SDS011;10060;48.274;12.214;2023-01-20T00:48:07;14.43;;;9.23;;
19800;SDS011;10060;48.274;12.214;2023-01-20T00:51:09;13.50;;;8.37;;
19800;SDS011;10060;48.274;12.214;2023-01-20T00:54:12;15.33;;;8.90;;
19800;SDS011;10060;48.274;12.214;2023-01-20T00:57:14;13.73;;;9.33;;
19800;SDS011;10060;48.274;12.214;2023-01-20T01:00:16;15.77;;;9.00;;
19800;SDS011;10060;48.274;12.214;2023-01-20T01:03:20;16.83;;;9.03;;
19800;SDS011;10060;48.274;12.214;2023-01-20T01:06:22;14.40;;;8.93;;
19800;SDS011;10060;48.274;12.214;2023-01-20T01:09:24;14.00;;;8.47;;
19800;SDS011;10060;48.274;12.214;2023-01-20T01:12:27;13.97;;;9.10;;
19800;SDS011;10060;48.274;12.214;2023-01-20T01:15:29;16.00;;;9.63;;
19800;SDS011;10060;48.274;12.214;2023-01-20T01:18:32;17.03;;;9.10;;
19800;SDS011;10060;48.274;12.214;2023-01-20T01:21:34;14.27;;;8.70;;
19800;SDS011;10060;48.274;12.214;2023-01-20T01:24:36;14.27;;;8.90;;
19800;SDS011;10060;48.274;12.214;2023-01-20T01:27:38;15.07;;;8.93;;
19800;SDS011;10060;48.274;12.214;2023-01-20T01:30:41;13.83;;;8.80;;
19800;SDS011;10060;48.274;12.214;2023-01-20T01:33:44;13.83;;;8.47;;
19800;SDS011;10060;48.274;12.214;2023-01-20T01:36:46;12.07;;;7.73;;
19800;SDS011;10060;48.274;12.214;2023-01-20T01:39:48;13.90;;;8.13;;
19800;SDS011;10060;48.274;12.214;2023-01-20T01:42:50;11.17;;;7.47;;
19800;SDS011;10060;48.274;12.214;2023-01-20T01:45:53;11.00;;;7.50;;
19800;SDS011;10060;48.274;12.214;2023-01-20T01:48:56;11.77;;;7.47;;
19800;SDS011;10060;48.274;12.214;2023-01-20T01:52:00;13.03;;;7.90;;
19800;SDS011;10060;48.274;12.214;2023-01-20T01:55:03;11.17;;;7.60;;
19800;SDS011;10060;48.274;12.214;2023-01-20T01:58:05;14.03;;;7.90;;
19800;SDS011;10060;48.274;12.214;2023-01-20T02:01:08;12.77;;;7.70;;
19800;SDS011;10060;48.274;12.214;2023-01-20T02:04:12;12.40;;;7.23;;
19800;SDS011;10060;48.274;12.214;2023-01-20T02:07:16;12.70;;;7.50;;
19800;SDS011;10060;48.274;12.214;2023-01-20T02:10:20;12.00;;;7.70;;
19800;SDS011;10060;48.274;12.214;2023-01-20T02:13:22;11.60;;;7.77;;
19800;SDS011;10060;48.274;12.214;2023-01-20T02:16:26;14.70;;;7.67;;
19800;SDS011;10060;48.274;12.214;2023-01-20T02:22:54;11.43;;;7.23;;
19800;SDS011;10060;48.274;12.214;2023-01-20T02:26:01;9.53;;;7.20;;
19800;SDS011;10060;48.274;12.214;2023-01-20T02:29:15;11.90;;;7.33;;
19800;SDS011;10060;48.274;12.214;2023-01-20T02:32:32;13.23;;;7.60;;
19800;SDS011;10060;48.274;12.214;2023-01-20T02:35:36;13.03;;;7.53;;
19800;SDS011;10060;48.274;12.214;2023-01-20T02:38:41;13.17;;;7.83;;
19800;SDS011;10060;48.274;12.214;2023-01-20T02:41:46;10.70;;;7.43;;
19800;SDS011;10060;48.274;12.214;2023-01-20T02:44:50;11.83;;;7.53;;
19800;SDS011;10060;48.274;12.214;2023-01-20T02:47:55;11.83;;;7.73;;
19800;SDS011;10060;48.274;12.214;2023-01-20T02:50:59;13.03;;;8.47;;
19800;SDS011;10060;48.274;12.214;2023-01-20T02:54:03;15.10;;;7.90;;
19800;SDS011;10060;48.274;12.214;2023-01-20T02:57:07;13.73;;;8.37;;
19800;SDS011;10060;48.274;12.214;2023-01-20T03:00:11;11.60;;;7.67;;
19800;SDS011;10060;48.274;12.214;2023-01-20T03:03:16;16.07;;;8.27;;
19800;SDS011;10060;48.274;12.214;2023-01-20T03:06:20;14.40;;;8.57;;
19800;SDS011;10060;48.274;12.214;2023-01-20T03:09:26;12.30;;;7.43;;
19800;SDS011;10060;48.274;12.214;2023-01-20T03:12:32;11.87;;;7.90;;
19800;SDS011;10060;48.274;12.214;2023-01-20T03:15:38;10.83;;;7.63;;
19800;SDS011;10060;48.274;12.214;2023-01-20T03:18:43;13.00;;;7.90;;
19800;SDS011;10060;48.274;12.214;2023-01-20T03:21:46;13.13;;;7.57;;
19800;SDS011;10060;48.274;12.214;2023-01-20T03:24:48;10.33;;;7.57;;
19800;SDS011;10060;48.274;12.214;2023-01-20T03:27:50;12.73;;;7.53;;
19800;SDS011;10060;48.274;12.214;2023-01-20T03:30:53;14.27;;;8.13;;
19800;SDS011;10060;48.274;12.214;2023-01-20T03:33:59;11.53;;;7.67;;
19800;SDS011;10060;48.274;12.214;2023-01-20T03:37:02;14.83;;;8.20;;
19800;SDS011;10060;48.274;12.214;2023-01-20T03:40:05;13.97;;;8.47;;
19800;SDS011;10060;48.274;12.214;2023-01-20T03:43:09;11.10;;;8.40;;
19800;SDS011;10060;48.274;12.214;2023-01-20T03:46:13;13.30;;;8.63;;
19800;SDS011;10060;48.274;12.214;2023-01-20T03:49:18;11.37;;;8.93;;
19800;SDS011;10060;48.274;12.214;2023-01-20T03:52:26;10.67;;;8.33;;
19800;SDS011;10060;48.274;12.214;2023-01-20T03:55:33;11.50;;;8.20;;
19800;SDS011;10060;48.274;12.214;2023-01-20T03:58:38;11.53;;;8.07;;
19800;SDS011;10060;48.274;12.214;2023-01-20T04:01:42;11.43;;;7.90;;
19800;SDS011;10060;48.274;12.214;2023-01-20T04:04:46;13.03;;;8.87;;
19800;SDS011;10060;48.274;12.214;2023-01-20T04:07:50;10.57;;;7.70;;
19800;SDS011;10060;48.274;12.214;2023-01-20T04:10:53;13.03;;;8.83;;
19800;SDS011;10060;48.274;12.214;2023-01-20T04:13:56;13.10;;;8.33;;
19800;SDS011;10060;48.274;12.214;2023-01-20T04:16:58;11.37;;;7.83;;
19800;SDS011;10060;48.274;12.214;2023-01-20T04:20:04;12.20;;;8.37;;
19800;SDS011;10060;48.274;12.214;2023-01-20T04:23:07;12.37;;;8.33;;
19800;SDS011;10060;48.274;12.214;2023-01-20T04:26:13;13.57;;;7.60;;
19800;SDS011;10060;48.274;12.214;2023-01-20T04:29:15;15.53;;;9.27;;
19800;SDS011;10060;48.274;12.214;2023-01-20T04:32:17;13.23;;;7.87;;
19800;SDS011;10060;48.274;12.214;2023-01-20T04:35:21;13.93;;;7.57;;
19800;SDS011;10060;48.274;12.214;2023-01-20T04:38:23;12.40;;;8.37;;
19800;SDS011;10060;48.274;12.214;2023-01-20T04:41:25;12.57;;;7.87;;
19800;SDS011;10060;48.274;12.214;2023-01-20T04:44:27;13.77;;;7.70;;
19800;SDS011;10060;48.274;12.214;2023-01-20T04:47:29;13.00;;;7.57;;
19800;SDS011;10060;48.274;12.214;2023-01-20T04:50:36;10.60;;;7.70;;
19800;SDS011;10060;48.274;12.214;2023-01-20T04:53:38;11.17;;;8.37;;
19800;SDS011;10060;48.274;12.214;2023-01-20T04:56:40;10.97;;;7.57;;
19800;SDS011;10060;48.274;12.214;2023-01-20T04:59:43;13.80;;;8.23;;
19800;SDS011;10060;48.274;12.214;2023-01-20T05:02:45;12.40;;;8.30;;
19800;SDS011;10060;48.274;12.214;2023-01-20T05:05:52;14.67;;;8.27;;
19800;SDS011;10060;48.274;12.214;2023-01-20T05:08:54;16.10;;;8.23;;
19800;SDS011;10060;48.274;12.214;2023-01-20T05:11:56;13.13;;;8.57;;
19800;SDS011;10060;48.274;12.214;2023-01-20T05:14:58;15.07;;;8.30;;
19800;SDS011;10060;48.274;12.214;2023-01-20T05:18:00;14.70;;;8.27;;
19800;SDS011;10060;48.274;12.214;2023-01-20T05:21:03;13.70;;;9.17;;
19800;SDS011;10060;48.274;12.214;2023-01-20T05:24:07;13.70;;;8.60;;
19800;SDS011;10060;48.274;12.214;2023-01-20T05:27:09;14.60;;;8.93;;
19800;SDS011;10060;48.274;12.214;2023-01-20T05:30:11;14.50;;;8.50;;
19800;SDS011;10060;48.274;12.214;2023-01-20T05:33:14;13.80;;;9.07;;
19800;SDS011;10060;48.274;12.214;2023-01-20T05:36:17;14.20;;;8.60;;
19800;SDS011;10060;48.274;12.214;2023-01-20T05:39:19;12.97;;;9.43;;
19800;SDS011;10060;48.274;12.214;2023-01-20T05:42:21;14.97;;;9.47;;
19800;SDS011;10060;48.274;12.214;2023-01-20T05:45:24;15.83;;;9.90;;
19800;SDS011;10060;48.274;12.214;2023-01-20T05:48:26;15.63;;;9.90;;
19800;SDS011;10060;48.274;12.214;2023-01-20T05:51:29;15.13;;;10.53;;
19800;SDS011;10060;48.274;12.214;2023-01-20T05:54:32;16.40;;;10.97;;
19800;SDS011;10060;48.274;12.214;2023-01-20T05:57:34;18.30;;;11.37;;
19800;SDS011;10060;48.274;12.214;2023-01-20T06:00:36;19.93;;;11.67;;
19800;SDS011;10060;48.274;12.214;2023-01-20T06:03:38;16.60;;;11.27;;
19800;SDS011;10060;48.274;12.214;2023-01-20T06:06:42;19.47;;;11.10;;
19800;SDS011;10060;48.274;12.214;2023-01-20T06:09:44;16.47;;;10.80;;
19800;SDS011;10060;48.274;12.214;2023-01-20T06:12:49;16.83;;;10.27;;
19800;SDS011;10060;48.274;12.214;2023-01-20T06:15:52;17.50;;;10.13;;
19800;SDS011;10060;48.274;12.214;2023-01-20T06:18:55;18.83;;;10.80;;
19800;SDS011;10060;48.274;12.214;2023-01-20T06:22:01;18.27;;;10.63;;
19800;SDS011;10060;48.274;12.214;2023-01-20T06:25:03;16.63;;;10.57;;
19800;SDS011;10060;48.274;12.214;2023-01-20T06:28:06;20.80;;;12.47;;
19800;SDS011;10060;48.274;12.214;2023-01-20T06:31:08;16.60;;;11.37;;
19800;SDS011;10060;48.274;12.214;2023-01-20T06:34:12;18.63;;;11.47;;
19800;SDS011;10060;48.274;12.214;2023-01-20T06:37:15;19.43;;;11.40;;
19800;SDS011;10060;48.274;12.214;2023-01-20T06:40:17;17.47;;;11.30;;
19800;SDS011;10060;48.274;12.214;2023-01-20T06:43:20;15.20;;;11.20;;
19800;SDS011;10060;48.274;12.214;2023-01-20T06:46:22;17.43;;;11.20;;
19800;SDS011;10060;48.274;12.214;2023-01-20T06:49:39;18.20;;;11.10;;
19800;SDS011;10060;48.274;12.214;2023-01-20T06:52:42;17.00;;;11.53;;
19800;SDS011;10060;48.274;12.214;2023-01-20T06:55:52;18.87;;;11.73;;
19800;SDS011;10060;48.274;12.214;2023-01-20T06:58:55;17.83;;;11.83;;
19800;SDS011;10060;48.274;12.214;2023-01-20T07:01:57;17.57;;;11.27;;
19800;SDS011;10060;48.274;12.214;2023-01-20T07:04:59;21.40;;;11.70;;
19800;SDS011;10060;48.274;12.214;2023-01-20T07:08:03;16.50;;;11.63;;
19800;SDS011;10060;48.274;12.214;2023-01-20T07:11:05;19.97;;;10.73;;
19800;SDS011;10060;48.274;12.214;2023-01-20T07:14:07;19.67;;;11.27;;
19800;SDS011;10060;48.274;12.214;2023-01-20T07:17:10;15.73;;;11.03;;
19800;SDS011;10060;48.274;12.214;2023-01-20T07:20:12;17.37;;;11.77;;
19800;SDS011;10060;48.274;12.214;2023-01-20T07:23:16;20.20;;;11.27;;
19800;SDS011;10060;48.274;12.214;2023-01-20T07:26:19;19.73;;;12.37;;
19800;SDS011;10060;48.274;12.214;2023-01-20T07:29:21;20.30;;;12.60;;
19800;SDS011;10060;48.274;12.214;2023-01-20T07:32:23;17.93;;;11.47;;
19800;SDS011;10060;48.274;12.214;2023-01-20T07:35:25;17.90;;;11.77;;
19800;SDS011;10060;48.274;12.214;2023-01-20T07:38:29;18.67;;;12.17;;
19800;SDS011;10060;48.274;12.214;2023-01-20T07:41:31;16.97;;;10.83;;
19800;SDS011;10060;48.274;12.214;2023-01-20T07:44:33;17.00;;;11.10;;
19800;SDS011;10060;48.274;12.214;2023-01-20T07:47:38;16.40;;;10.80;;
19800;SDS011;10060;48.274;12.214;2023-01-20T07:50:41;19.60;;;11.60;;
19800;SDS011;10060;48.274;12.214;2023-01-20T07:53:45;16.27;;;10.80;;
19800;SDS011;10060;48.274;12.214;2023-01-20T07:56:47;16.93;;;11.00;;
19800;SDS011;10060;48.274;12.214;2023-01-20T07:59:49;15.93;;;10.67;;
19800;SDS011;10060;48.274;12.214;2023-01-20T08:02:54;16.47;;;11.10;;
19800;SDS011;10060;48.274;12.214;2023-01-20T08:05:56;14.90;;;10.27;;
19800;SDS011;10060;48.274;12.214;2023-01-20T08:09:00;20.40;;;11.53;;
19800;SDS011;10060;48.274;12.214;2023-01-20T08:12:04;16.83;;;11.57;;
19800;SDS011;10060;48.274;12.214;2023-01-20T08:15:07;19.07;;;12.17;;
19800;SDS011;10060;48.274;12.214;2023-01-20T08:18:09;20.47;;;12.60;;
19800;SDS011;10060;48.274;12.214;2023-01-20T08:21:18;18.03;;;11.57;;
19800;SDS011;10060;48.274;12.214;2023-01-20T08:24:21;19.00;;;12.37;;
19800;SDS011;10060;48.274;12.214;2023-01-20T08:27:23;22.60;;;11.40;;
19800;SDS011;10060;48.274;12.214;2023-01-20T08:30:25;17.83;;;11.40;;
19800;SDS011;10060;48.274;12.214;2023-01-20T08:33:27;17.73;;;10.70;;
19800;SDS011;10060;48.274;12.214;2023-01-20T08:36:31;17.67;;;10.90;;
19800;SDS011;10060;48.274;12.214;2023-01-20T08:39:34;17.37;;;11.17;;
19800;SDS011;10060;48.274;12.214;2023-01-20T08:42:36;17.10;;;10.90;;
19800;SDS011;10060;48.274;12.214;2023-01-20T08:45:39;16.67;;;11.20;;
19800;SDS011;10060;48.274;12.214;2023-01-20T08:48:42;17.73;;;11.37;;
19800;SDS011;10060;48.274;12.214;2023-01-20T08:51:44;18.47;;;11.30;;
19800;SDS011;10060;48.274;12.214;2023-01-20T08:54:49;19.47;;;12.17;;
19800;SDS011;10060;48.274;12.214;2023-01-20T08:57:51;20.77;;;11.97;;
19800;SDS011;10060;48.274;12.214;2023-01-20T09:00:54;20.13;;;12.57;;
19800;SDS011;10060;48.274;12.214;2023-01-20T09:03:56;19.50;;;11.93;;
19800;SDS011;10060;48.274;12.214;2023-01-20T09:06:58;20.73;;;12.27;;
19800;SDS011;10060;48.274;12.214;2023-01-20T09:10:02;22.97;;;14.07;;
19800;SDS011;10060;48.274;12.214;2023-01-20T09:13:04;23.20;;;13.57;;
19800;SDS011;10060;48.274;12.214;2023-01-20T09:16:07;23.63;;;14.27;;
19800;SDS011;10060;48.274;12.214;2023-01-20T09:19:09;20.67;;;13.40;;
19800;SDS011;10060;48.274;12.214;2023-01-20T09:22:11;19.23;;;12.53;;
19800;SDS011;10060;48.274;12.214;2023-01-20T09:25:15;17.53;;;11.37;;
19800;SDS011;10060;48.274;12.214;2023-01-20T09:28:17;20.27;;;11.87;;
19800;SDS011;10060;48.274;12.214;2023-01-20T09:31:19;18.27;;;11.70;;
19800;SDS011;10060;48.274;12.214;2023-01-20T09:34:21;22.27;;;12.80;;
19800;SDS011;10060;48.274;12.214;2023-01-20T09:37:23;19.67;;;12.17;;
19800;SDS011;10060;48.274;12.214;2023-01-20T09:40:47;20.77;;;13.27;;
19800;SDS011;10060;48.274;12.214;2023-01-20T09:44:15;17.87;;;11.63;;
19800;SDS011;10060;48.274;12.214;2023-01-20T09:47:24;18.33;;;12.17;;
19800;SDS011;10060;48.274;12.214;2023-01-20T09:50:30;20.60;;;11.83;;
19800;SDS011;10060;48.274;12.214;2023-01-20T09:53:53;20.57;;;12.17;;
19800;SDS011;10060;48.274;12.214;2023-01-20T09:56:58;21.37;;;11.60;;
19800;SDS011;10060;48.274;12.214;2023-01-20T10:00:03;17.90;;;11.30;;
19800;SDS011;10060;48.274;12.214;2023-01-20T10:03:08;20.33;;;12.60;;
19800;SDS011;10060;48.274;12.214;2023-01-20T10:06:13;22.00;;;12.97;;
19800;SDS011;10060;48.274;12.214;2023-01-20T10:09:17;20.83;;;12.10;;
19800;SDS011;10060;48.274;12.214;2023-01-20T10:12:26;18.50;;;11.57;;
19800;SDS011;10060;48.274;12.214;2023-01-20T10:15:31;19.27;;;11.07;;
19800;SDS011;10060;48.274;12.214;2023-01-20T10:18:35;18.43;;;11.27;;
19800;SDS011;10060;48.274;12.214;2023-01-20T10:21:39;20.57;;;11.47;;
19800;SDS011;10060;48.274;12.214;2023-01-20T10:24:44;19.03;;;11.53;;
19800;SDS011;10060;48.274;12.214;2023-01-20T10:27:50;18.20;;;11.67;;
19800;SDS011;10060;48.274;12.214;2023-01-20T10:30:53;19.40;;;12.17;;
19800;SDS011;10060;48.274;12.214;2023-01-20T10:33:57;18.57;;;12.40;;
19800;SDS011;10060;48.274;12.214;2023-01-20T10:37:03;23.63;;;12.23;;
19800;SDS011;10060;48.274;12.214;2023-01-20T10:40:12;23.53;;;12.40;;
19800;SDS011;10060;48.274;12.214;2023-01-20T10:43:18;19.23;;;12.20;;
19800;SDS011;10060;48.274;12.214;2023-01-20T10:46:29;23.47;;;11.10;;
19800;SDS011;10060;48.274;12.214;2023-01-20T10:49:40;20.30;;;12.07;;
19800;SDS011;10060;48.274;12.214;2023-01-20T10:52:52;20.33;;;11.50;;
19800;SDS011;10060;48.274;12.214;2023-01-20T10:56:01;17.67;;;11.03;;
19800;SDS011;10060;48.274;12.214;2023-01-20T10:59:11;16.60;;;10.23;;
19800;SDS011;10060;48.274;12.214;2023-01-20T11:02:15;18.07;;;11.30;;
19800;SDS011;10060;48.274;12.214;2023-01-20T11:05:18;17.77;;;11.00;;
19800;SDS011;10060;48.274;12.214;2023-01-20T11:08:22;18.03;;;10.43;;
19800;SDS011;10060;48.274;12.214;2023-01-20T11:11:24;24.47;;;11.07;;
19800;SDS011;10060;48.274;12.214;2023-01-20T11:14:29;17.23;;;10.40;;
19800;SDS011;10060;48.274;12.214;2023-01-20T11:17:32;16.50;;;10.63;;
19800;SDS011;10060;48.274;12.214;2023-01-20T11:20:34;16.60;;;11.07;;
19800;SDS011;10060;48.274;12.214;2023-01-20T11:23:38;22.57;;;11.17;;
19800;SDS011;10060;48.274;12.214;2023-01-20T11:26:40;17.63;;;11.13;;
19800;SDS011;10060;48.274;12.214;2023-01-20T11:29:45;18.87;;;10.67;;
19800;SDS011;10060;48.274;12.214;2023-01-20T11:36:10;17.03;;;10.70;;
19800;SDS011;10060;48.274;12.214;2023-01-20T11:39:24;17.83;;;12.03;;
19800;SDS011;10060;48.274;12.214;2023-01-20T11:42:27;20.80;;;11.70;;
19800;SDS011;10060;48.274;12.214;2023-01-20T11:45:31;19.43;;;11.27;;
19800;SDS011;10060;48.274;12.214;2023-01-20T11:48:34;18.23;;;11.53;;
19800;SDS011;10060;48.274;12.214;2023-01-20T11:51:42;19.97;;;11.23;;
19800;SDS011;10060;48.274;12.214;2023-01-20T11:54:44;19.07;;;12.13;;
19800;SDS011;10060;48.274;12.214;2023-01-20T11:57:47;19.57;;;12.10;;
19800;SDS011;10060;48.274;12.214;2023-01-20T12:00:57;24.57;;;12.37;;
19800;SDS011;10060;48.274;12.214;2023-01-20T12:07:21;21.17;;;13.33;;
19800;SDS011;10060;48.274;12.214;2023-01-20T12:10:26;23.10;;;13.07;;
19800;SDS011;10060;48.274;12.214;2023-01-20T12:13:29;23.30;;;13.10;;
19800;SDS011;10060;48.274;12.214;2023-01-20T12:16:59;20.23;;;13.30;;
19800;SDS011;10060;48.274;12.214;2023-01-20T12:20:06;19.57;;;11.93;;
19800;SDS011;10060;48.274;12.214;2023-01-20T12:23:12;20.50;;;12.73;;
19800;SDS011;10060;48.274;12.214;2023-01-20T12:26:20;18.33;;;11.20;;
19800;SDS011;10060;48.274;12.214;2023-01-20T12:29:23;17.07;;;11.40;;
19800;SDS011;10060;48.274;12.214;2023-01-20T12:32:32;17.20;;;11.27;;
19800;SDS011;10060;48.274;12.214;2023-01-20T12:35:36;16.87;;;11.37;;
19800;SDS011;10060;48.274;12.214;2023-01-20T12:38:46;19.00;;;11.40;;
19800;SDS011;10060;48.274;12.214;2023-01-20T12:42:11;18.97;;;10.77;;
19800;SDS011;10060;48.274;12.214;2023-01-20T12:45:20;23.17;;;11.10;;
19800;SDS011;10060;48.274;12.214;2023-01-20T12:48:27;19.03;;;11.47;;
19800;SDS011;10060;48.274;12.214;2023-01-20T12:51:34;16.93;;;10.40;;
19800;SDS011;10060;48.274;12.214;2023-01-20T12:54:48;16.83;;;10.73;;
19800;SDS011;10060;48.274;12.214;2023-01-20T12:57:59;14.57;;;9.83;;
19800;SDS011;10060;48.274;12.214;2023-01-20T13:01:14;17.80;;;10.60;;
19800;SDS011;10060;48.274;12.214;2023-01-20T13:04:28;15.47;;;10.63;;
19800;SDS011;10060;48.274;12.214;2023-01-20T13:07:38;17.87;;;10.27;;
19800;SDS011;10060;48.274;12.214;2023-01-20T13:10:45;16.10;;;10.13;;
19800;SDS011;10060;48.274;12.214;2023-01-20T13:13:56;18.53;;;9.70;;
19800;SDS011;10060;48.274;12.214;2023-01-20T13:17:01;17.40;;;10.73;;
19800;SDS011;10060;48.274;12.214;2023-01-20T13:20:10;14.10;;;9.47;;
19800;SDS011;10060;48.274;12.214;2023-01-20T13:23:17;19.07;;;10.13;;
19800;SDS011;10060;48.274;12.214;2023-01-20T13:26:21;17.57;;;10.33;;
19800;SDS011;10060;48.274;12.214;2023-01-20T13:29:40;19.57;;;11.53;;
19800;SDS011;10060;48.274;12.214;2023-01-20T13:32:43;16.73;;;9.77;;
19800;SDS011;10060;48.274;12.214;2023-01-20T13:35:48;19.13;;;11.80;;
19800;SDS011;10060;48.274;12.214;2023-01-20T13:39:24;15.20;;;10.33;;
19800;SDS011;10060;48.274;12.214;2023-01-20T13:45:45;17.87;;;10.93;;
19800;SDS011;10060;48.274;12.214;2023-01-20T13:52:06;19.20;;;10.87;;
19800;SDS011;10060;48.274;12.214;2023-01-20T13:58:28;17.43;;;10.13;;
19800;SDS011;10060;48.274;12.214;2023-01-20T14:01:31;19.73;;;11.70;;
19800;SDS011;10060;48.274;12.214;2023-01-20T14:04:36;19.07;;;11.37;;
19800;SDS011;10060;48.274;12.214;2023-01-20T14:07:46;19.17;;;12.23;;
19800;SDS011;10060;48.274;12.214;2023-01-20T14:10:48;19.90;;;12.07;;
19800;SDS011;10060;48.274;12.214;2023-01-20T14:13:50;16.47;;;11.17;;
19800;SDS011;10060;48.274;12.214;2023-01-20T14:17:01;18.00;;;11.37;;
19800;SDS011;10060;48.274;12.214;2023-01-20T14:20:16;20.73;;;10.93;;
19800;SDS011;10060;48.274;12.214;2023-01-20T14:23:28;19.13;;;11.50;;
19800;SDS011;10060;48.274;12.214;2023-01-20T14:26:30;18.60;;;11.57;;
19800;SDS011;10060;48.274;12.214;2023-01-20T14:29:32;21.10;;;11.97;;
19800;SDS011;10060;48.274;12.214;2023-01-20T14:32:35;18.00;;;11.40;;
19800;SDS011;10060;48.274;12.214;2023-01-20T14:35:37;19.50;;;12.03;;
19800;SDS011;10060;48.274;12.214;2023-01-20T14:38:42;21.50;;;12.27;;
19800;SDS011;10060;48.274;12.214;2023-01-20T14:41:47;23.37;;;12.37;;
19800;SDS011;10060;48.274;12.214;2023-01-20T14:44:50;22.77;;;13.87;;
19800;SDS011;10060;48.274;12.214;2023-01-20T14:47:52;24.43;;;13.77;;
19800;SDS011;10060;48.274;12.214;2023-01-20T14:50:54;25.70;;;13.93;;
19800;SDS011;10060;48.274;12.214;2023-01-20T14:57:22;26.10;;;14.70;;
19800;SDS011;10060;48.274;12.214;2023-01-20T15:00:25;24.10;;;13.87;;
19800;SDS011;10060;48.274;12.214;2023-01-20T15:03:28;25.00;;;13.90;;
19800;SDS011;10060;48.274;12.214;2023-01-20T15:06:30;23.87;;;14.30;;
19800;SDS011;10060;48.274;12.214;2023-01-20T15:09:33;26.73;;;15.13;;
19800;SDS011;10060;48.274;12.214;2023-01-20T15:12:38;23.47;;;15.10;;
19800;SDS011;10060;48.274;12.214;2023-01-20T15:15:41;30.97;;;15.73;;
19800;SDS011;10060;48.274;12.214;2023-01-20T15:18:43;27.67;;;15.83;;
19800;SDS011;10060;48.274;12.214;2023-01-20T15:21:52;26.70;;;15.30;;
19800;SDS011;10060;48.274;12.214;2023-01-20T15:24:55;27.93;;;16.13;;
19800;SDS011;10060;48.274;12.214;2023-01-20T15:28:05;27.93;;;16.53;;
19800;SDS011;10060;48.274;12.214;2023-01-20T15:31:07;28.97;;;15.47;;
19800;SDS011;10060;48.274;12.214;2023-01-20T15:34:12;29.13;;;16.47;;
19800;SDS011;10060;48.274;12.214;2023-01-20T15:37:16;27.20;;;16.17;;
19800;SDS011;10060;48.274;12.214;2023-01-20T15:40:19;30.27;;;17.33;;
19800;SDS011;10060;48.274;12.214;2023-01-20T15:43:22;30.83;;;17.47;;
19800;SDS011;10060;48.274;12.214;2023-01-20T15:46:24;32.20;;;19.50;;
19800;SDS011;10060;48.274;12.214;2023-01-20T15:49:27;33.60;;;17.87;;
19800;SDS011;10060;48.274;12.214;2023-01-20T15:52:29;32.57;;;18.90;;
19800;SDS011;10060;48.274;12.214;2023-01-20T15:55:31;29.93;;;17.47;;
19800;SDS011;10060;48.274;12.214;2023-01-20T15:58:36;32.13;;;17.83;;
19800;SDS011;10060;48.274;12.214;2023-01-20T16:01:38;33.13;;;18.60;;
19800;SDS011;10060;48.274;12.214;2023-01-20T16:04:40;32.50;;;18.87;;
19800;SDS011;10060;48.274;12.214;2023-01-20T16:07:42;31.20;;;18.10;;
19800;SDS011;10060;48.274;12.214;2023-01-20T16:10:46;37.77;;;20.03;;
19800;SDS011;10060;48.274;12.214;2023-01-20T16:13:50;41.30;;;20.63;;
19800;SDS011;10060;48.274;12.214;2023-01-20T16:16:52;41.30;;;21.00;;
19800;SDS011;10060;48.274;12.214;2023-01-20T16:19:54;32.87;;;20.60;;
19800;SDS011;10060;48.274;12.214;2023-01-20T16:22:57;36.00;;;20.10;;
19800;SDS011;10060;48.274;12.214;2023-01-20T16:25:59;39.27;;;20.53;;
19800;SDS011;10060;48.274;12.214;2023-01-20T16:29:02;36.70;;;21.00;;
19800;SDS011;10060;48.274;12.214;2023-01-20T16:32:04;36.60;;;19.90;;
19800;SDS011;10060;48.274;12.214;2023-01-20T16:35:07;37.27;;;21.40;;
19800;SDS011;10060;48.274;12.214;2023-01-20T16:38:11;44.23;;;22.33;;
19800;SDS011;10060;48.274;12.214;2023-01-20T16:41:14;42.63;;;22.30;;
19800;SDS011;10060;48.274;12.214;2023-01-20T16:44:18;40.77;;;21.30;;
19800;SDS011;10060;48.274;12.214;2023-01-20T16:47:20;37.03;;;21.00;;
19800;SDS011;10060;48.274;12.214;2023-01-20T16:50:22;41.97;;;22.17;;
19800;SDS011;10060;48.274;12.214;2023-01-20T16:53:27;39.43;;;21.40;;
19800;SDS011;10060;48.274;12.214;2023-01-20T16:56:29;45.27;;;23.50;;
19800;SDS011;10060;48.274;12.214;2023-01-20T16:59:33;40.90;;;22.63;;
19800;SDS011;10060;48.274;12.214;2023-01-20T17:02:35;41.27;;;22.00;;
19800;SDS011;10060;48.274;12.214;2023-01-20T17:05:38;39.20;;;21.63;;
19800;SDS011;10060;48.274;12.214;2023-01-20T17:08:41;45.23;;;23.47;;
19800;SDS011;10060;48.274;12.214;2023-01-20T17:11:43;41.53;;;21.17;;
19800;SDS011;10060;48.274;12.214;2023-01-20T17:14:47;45.33;;;22.50;;
19800;SDS011;10060;48.274;12.214;2023-01-20T17:17:49;46.77;;;24.50;;
19800;SDS011;10060;48.274;12.214;2023-01-20T17:20:53;42.43;;;24.27;;
19800;SDS011;10060;48.274;12.214;2023-01-20T17:23:56;47.27;;;22.97;;
19800;SDS011;10060;48.274;12.214;2023-01-20T17:26:58;46.77;;;23.83;;
19800;SDS011;10060;48.274;12.214;2023-01-20T17:30:02;46.53;;;23.97;;
19800;SDS011;10060;48.274;12.214;2023-01-20T17:33:06;43.03;;;23.47;;
19800;SDS011;10060;48.274;12.214;2023-01-20T17:36:08;40.37;;;23.70;;
19800;SDS011;10060;48.274;12.214;2023-01-20T17:39:10;47.40;;;25.07;;
19800;SDS011;10060;48.274;12.214;2023-01-20T17:42:13;47.57;;;24.40;;
19800;SDS011;10060;48.274;12.214;2023-01-20T17:45:16;48.53;;;23.07;;
19800;SDS011;10060;48.274;12.214;2023-01-20T17:48:18;47.77;;;25.10;;
19800;SDS011;10060;48.274;12.214;2023-01-20T17:51:21;47.27;;;24.77;;
19800;SDS011;10060;48.274;12.214;2023-01-20T17:54:23;43.93;;;23.53;;
19800;SDS011;10060;48.274;12.214;2023-01-20T17:57:25;47.93;;;24.43;;
19800;SDS011;10060;48.274;12.214;2023-01-20T18:00:30;44.00;;;23.67;;
19800;SDS011;10060;48.274;12.214;2023-01-20T18:03:32;46.17;;;24.60;;
19800;SDS011;10060;48.274;12.214;2023-01-20T18:06:34;46.47;;;24.77;;
19800;SDS011;10060;48.274;12.214;2023-01-20T18:09:37;50.50;;;24.87;;
19800;SDS011;10060;48.274;12.214;2023-01-20T18:12:39;45.50;;;25.00;;